Thursday, September 20, 2018, 10:37 PM EDT
Back to Local

KDYL, Doylestown Airport

Location: Doylestown, PA, United States Lat: 40.333
Local Time: 10:37 PM EDT ( 2:37 GMT) Lon: -75.117
Time Zone: US/Eastern Elev: 393 ft

Show me the last for .
Show Coded

Time T Td Feel RH Dir Speed Gust Alt SLP Vis Weather Sky Remarks
2018-09-20 22:28 65 60 - 84 170° 5 - 30.25 - 10 BKN026 OVC049 None
2018-09-20 22:02 65 61 - 87 - Calm - 30.24 - 10 SCT025 OVC047 None
2018-09-20 21:54 65 61 - 87 Variable 3 - 30.24 30.24 10 BKN025 OVC045 None
2018-09-20 21:31 66 61 - 83 Variable 3 - 30.24 - 10 BKN025 BKN032 OVC047 None
2018-09-20 20:54 66 61 - 83 Variable 6 - 30.23 30.22 10 SCT024 BKN032 OVC049 None
2018-09-20 19:54 68 62 - 81 - Calm - 30.22 30.21 10 BKN023 OVC028 6-hr Min Temp (8pm): 68.0°F
6-hr Max Temp (8pm): 71.1°F
2018-09-20 19:40 68 62 - 81 - Calm - 30.22 - 10 SCT023 OVC028 None
2018-09-20 18:54 68 62 - 81 - Calm - 30.21 30.20 10 OVC039 None
2018-09-20 17:54 69 62 - 78 - Calm - 30.21 30.20 10 OVC042 None
2018-09-20 17:30 69 63 - 80 - Calm - 30.21 - 10 SCT027 BKN044 None
2018-09-20 16:54 70 62 - 76 - Calm - 30.21 30.20 10 BKN025 OVC031 None
2018-09-20 15:54 69 62 - 78 - Calm - 30.21 30.19 10 OVC024 None
2018-09-20 14:54 70 62 - 76 Variable 3 - 30.21 30.20 10 OVC023 None
2018-09-20 13:54 69 62 - 78 160° 5 - 30.22 30.21 10 OVC022 6-hr Min Temp (2pm): 64.0°F
6-hr Max Temp (2pm): 70.0°F
2018-09-20 12:54 69 62 - 78 - Calm - 30.23 30.22 10 OVC021 None
2018-09-20 11:54 67 60 - 78 160° 5 - 30.24 30.23 10 OVC021 None
2018-09-20 10:54 69 61 - 75 Variable 3 - 30.23 30.22 10 BKN019 OVC023 None
2018-09-20 09:54 66 61 - 83 - Calm - 30.22 30.21 10 OVC019 None
2018-09-20 08:54 65 61 - 87 - Calm - 30.20 30.19 10 OVC017 None
2018-09-20 08:22 65 61 - 87 - Calm - 30.19 - 10 OVC015 None
2018-09-20 07:54 64 62 - 93 - Calm - 30.18 30.17 10 OVC011 6-hr Precip Total (8am): 0.01"
24-hr Precip Total (8am): 0.01"
6-hr Min Temp (8am): 64.0°F
6-hr Max Temp (8am): 68.0°F
2018-09-20 07:43 64 62 - 93 Variable 3 - 30.17 - 10 OVC010 None
2018-09-20 07:31 64 62 - 93 Variable 5 - 30.16 - 8 OVC008 None
2018-09-20 06:54 66 63 - 89 - Calm - 30.15 30.14 10 OVC012 None
2018-09-20 05:54 66 64 - 93 160° 3 - 30.11 30.10 10 OVC010 1-hr Precip Total: 0.01"
2018-09-20 05:44 66 64 - 93 Variable 3 - 30.11 - 10 OVC010 1-hr Precip Total: 0.01"
2018-09-20 04:54 67 66 - 96 - Calm - 30.09 30.07 10 BKN009 OVC013 None
2018-09-20 04:36 68 66 - 93 - Calm - 30.09 - 10 BKN011 OVC017 None
2018-09-20 04:03 68 66 - 93 - Calm - 30.08 - 10 BKN016 OVC028 None
2018-09-20 03:54 68 66 - 93 - Calm - 30.08 30.06 10 BKN014 OVC028 None
2018-09-20 03:45 68 66 - 93 - Calm - 30.08 - 10 SCT012 OVC027 None
2018-09-20 02:54 68 66 - 93 - Calm - 30.07 30.06 10 SCT005 BKN011 OVC017 None
2018-09-20 02:52 66 66 - 100 - Calm - 30.07 - 10 SCT006 BKN011 OVC018 None
2018-09-20 02:41 67 66 - 96 - Calm - 30.07 - 10 BKN006 BKN010 OVC016 None
2018-09-20 02:30 67 66 - 96 - Calm - 30.07 - 10 FEW007 BKN016 None
2018-09-20 02:14 67 65 - 93 - Calm - 30.07 - 10 BKN014 BKN037 None
2018-09-20 02:07 67 65 - 93 - Calm - 30.07 - 10 SCT014 BKN037 None
2018-09-20 01:54 67 66 - 96 - Calm - 30.08 30.06 10 SCT010 BKN014 OVC037 6-hr Min Temp (2am): 64.9°F
6-hr Max Temp (2am): 70.0°F
2018-09-20 01:51 66 66 - 100 - Calm - 30.08 - 10 BKN010 BKN016 OVC037 None
2018-09-20 00:54 67 65 - 93 - Calm - 30.07 30.05 10 OVC007 24-hr Min Temp (1am): 64.0°F
24-hr Max Temp (1am): 84.0°F
2018-09-20 00:35 67 65 - 93 - Calm - 30.06 - 10 BKN007 BKN014 None
2018-09-20 00:12 66 65 - 96 - Calm - 30.06 - 10 SCT009 BKN014 BKN021 None
2018-09-19 23:57 67 64 - 90 - Calm - 30.06 - 10 BKN010 BKN022 None
2018-09-19 23:54 66 64 - 93 - Calm - 30.06 30.05 10 SCT012 SCT022 None
2018-09-19 22:54 67 64 - 90 - Calm - 30.05 30.03 10 CLR None

Support USWX by starting your Amazon purchase here.